createdAt,value
2017-10-19T00:01:17.460Z,32.23
2017-10-19T00:03:43.730Z,22.73
2017-10-19T00:06:10.013Z,18.67
2017-10-19T00:08:36.302Z,24.53
2017-10-19T00:11:02.581Z,29.50
2017-10-19T00:13:28.840Z,30.63
2017-10-19T00:15:55.111Z,21.90
2017-10-19T00:18:21.380Z,28.50
2017-10-19T00:20:47.812Z,25.93
2017-10-19T00:23:14.094Z,34.50
2017-10-19T00:25:40.344Z,25.20
2017-10-19T00:28:06.617Z,33.80
2017-10-19T00:30:32.884Z,26.90
2017-10-19T00:32:59.157Z,36.13
2017-10-19T00:35:25.425Z,30.23
2017-10-19T00:37:51.739Z,26.90
2017-10-19T00:40:18.023Z,25.13
2017-10-19T00:42:44.291Z,26.97
2017-10-19T00:45:10.551Z,26.50
2017-10-19T00:47:36.808Z,28.67
2017-10-19T00:50:03.129Z,26.27
2017-10-19T00:52:29.391Z,30.70
2017-10-19T00:54:55.698Z,32.67
2017-10-19T00:57:21.963Z,27.47
2017-10-19T00:59:48.241Z,31.77
2017-10-19T01:02:14.519Z,30.93
2017-10-19T01:04:40.784Z,32.00
2017-10-19T01:07:07.067Z,30.00
2017-10-19T01:09:33.343Z,34.30
2017-10-19T01:11:59.622Z,33.00
2017-10-19T01:14:25.891Z,36.33
2017-10-19T01:16:52.164Z,37.63
2017-10-19T01:19:18.443Z,40.90
2017-10-19T01:21:44.716Z,28.13
2017-10-19T01:24:10.993Z,30.63
2017-10-19T01:26:37.397Z,25.90
2017-10-19T01:29:03.710Z,37.27
2017-10-19T01:31:30.002Z,21.20
2017-10-19T01:33:56.269Z,25.57
2017-10-19T01:36:22.525Z,26.20
2017-10-19T01:38:48.791Z,37.70
2017-10-19T01:41:15.072Z,27.50
2017-10-19T01:43:41.369Z,25.93
2017-10-19T01:46:07.647Z,30.43
2017-10-19T01:48:33.915Z,27.93
2017-10-19T01:51:00.248Z,35.67
2017-10-19T01:53:26.529Z,39.37
2017-10-19T01:55:52.811Z,27.43
2017-10-19T01:58:19.106Z,26.20
2017-10-19T02:00:45.379Z,40.20
2017-10-19T02:03:11.659Z,53.00
2017-10-19T02:05:37.951Z,40.40
2017-10-19T02:08:04.264Z,36.63
2017-10-19T02:10:30.563Z,34.33
2017-10-19T02:12:56.841Z,25.67
2017-10-19T02:15:23.131Z,28.77
2017-10-19T02:17:49.398Z,19.63
2017-10-19T02:20:15.662Z,19.30
2017-10-19T02:22:41.952Z,31.83
2017-10-19T02:25:08.236Z,19.73
2017-10-19T02:27:34.504Z,23.87
2017-10-19T02:30:00.816Z,23.20
2017-10-19T02:32:27.103Z,22.83
2017-10-19T02:34:53.399Z,27.97
2017-10-19T02:37:19.689Z,22.53
2017-10-19T02:39:45.965Z,41.93
2017-10-19T02:42:12.240Z,42.20
2017-10-19T02:44:38.529Z,30.67
2017-10-19T02:47:04.804Z,27.23
2017-10-19T02:49:31.092Z,23.43
2017-10-19T02:51:57.362Z,23.30
2017-10-19T02:54:23.671Z,24.43
2017-10-19T02:56:49.919Z,27.33
2017-10-19T02:59:16.180Z,23.40
2017-10-19T03:01:42.459Z,19.67
2017-10-19T03:04:08.732Z,18.47
2017-10-19T03:06:35.015Z,26.17
2017-10-19T03:09:01.287Z,25.33
2017-10-19T03:11:27.597Z,23.77
2017-10-19T03:13:53.874Z,29.90
2017-10-19T03:16:20.157Z,42.50
2017-10-19T03:18:46.610Z,33.57
2017-10-19T03:21:12.890Z,23.53
2017-10-19T03:23:39.182Z,20.30
2017-10-19T03:26:05.489Z,32.53
2017-10-19T03:28:31.814Z,28.90
2017-10-19T03:30:58.087Z,26.33
2017-10-19T03:33:24.368Z,20.73
2017-10-19T03:35:50.656Z,20.67
2017-10-19T03:38:16.949Z,25.30
2017-10-19T03:40:43.266Z,37.53
2017-10-19T03:43:09.533Z,32.27
2017-10-19T03:45:35.809Z,25.13
2017-10-19T03:48:02.117Z,31.30
2017-10-19T03:50:28.398Z,22.33
2017-10-19T03:52:54.703Z,30.30
2017-10-19T03:55:21.042Z,25.60
2017-10-19T03:57:47.321Z,27.47
2017-10-19T04:00:13.577Z,30.47
2017-10-19T04:02:39.850Z,20.03
2017-10-19T04:05:06.170Z,28.30
2017-10-19T04:07:32.549Z,21.10
2017-10-19T04:09:58.819Z,31.33
2017-10-19T04:12:25.103Z,30.90
2017-10-19T04:14:51.376Z,23.10
2017-10-19T04:17:17.662Z,47.87
2017-10-19T04:19:43.929Z,22.10
2017-10-19T04:22:10.192Z,32.37
2017-10-19T04:24:36.469Z,28.10
2017-10-19T04:27:02.742Z,26.57
2017-10-19T04:29:29.066Z,21.30
2017-10-19T04:31:55.319Z,25.73
2017-10-19T04:34:21.589Z,66.30
2017-10-19T04:36:47.861Z,20.33
2017-10-19T04:39:14.142Z,24.87
2017-10-19T04:41:40.471Z,28.67
2017-10-19T04:44:06.736Z,28.17
2017-10-19T04:46:33.023Z,29.43
2017-10-19T04:48:59.335Z,42.90
2017-10-19T04:51:25.603Z,24.30
2017-10-19T04:53:51.895Z,32.60
2017-10-19T04:56:18.169Z,24.43
2017-10-19T04:58:44.493Z,21.80
2017-10-19T05:01:10.784Z,21.13
2017-10-19T05:03:37.073Z,30.47
2017-10-19T05:06:03.357Z,37.80
2017-10-19T05:08:29.426Z,34.73
2017-10-19T05:10:55.712Z,23.30
2017-10-19T05:13:21.996Z,27.60
2017-10-19T05:15:48.272Z,24.90
2017-10-19T05:18:14.557Z,19.73
2017-10-19T05:20:40.818Z,16.17
2017-10-19T05:23:07.064Z,16.70
2017-10-19T05:25:33.349Z,20.73
2017-10-19T05:27:59.607Z,16.67
2017-10-19T05:30:25.988Z,29.90
2017-10-19T05:32:52.251Z,34.23
2017-10-19T05:35:18.531Z,16.70
2017-10-19T05:37:44.786Z,36.37
2017-10-19T05:40:11.049Z,25.87
2017-10-19T05:42:37.308Z,15.27
2017-10-19T05:45:03.588Z,42.40
2017-10-19T05:47:29.882Z,24.90
2017-10-19T05:49:56.144Z,26.57
2017-10-19T05:52:22.409Z,28.60
2017-10-19T05:54:48.662Z,17.67
2017-10-19T05:57:14.974Z,26.93
2017-10-19T05:59:41.229Z,19.73
2017-10-19T06:02:07.499Z,21.80
2017-10-19T06:04:33.798Z,22.53
2017-10-19T06:07:00.056Z,14.70
2017-10-19T06:09:26.491Z,18.47
2017-10-19T06:11:52.750Z,13.10
2017-10-19T06:14:19.026Z,32.43
2017-10-19T06:16:45.342Z,27.63
2017-10-19T06:19:11.595Z,19.27
2017-10-19T06:21:37.860Z,18.10
2017-10-19T06:24:04.156Z,21.17
2017-10-19T06:26:30.418Z,10.70
2017-10-19T06:28:56.692Z,14.40
2017-10-19T06:31:23.015Z,16.33
2017-10-19T06:33:49.275Z,27.97
2017-10-19T06:36:15.528Z,22.33
2017-10-19T06:38:41.845Z,15.50
2017-10-19T06:41:08.125Z,17.30
2017-10-19T06:43:34.397Z,31.13
2017-10-19T06:46:00.715Z,20.60
2017-10-19T06:48:26.979Z,16.20
2017-10-19T06:50:53.240Z,29.13
2017-10-19T06:53:19.549Z,30.27
2017-10-19T06:55:45.807Z,28.37
2017-10-19T06:58:12.077Z,17.20
2017-10-19T07:00:38.379Z,24.83
2017-10-19T07:03:04.654Z,15.07
2017-10-19T07:05:30.939Z,26.53
2017-10-19T07:07:57.251Z,30.20
2017-10-19T07:10:23.526Z,13.97
2017-10-19T07:12:49.811Z,15.90
2017-10-19T07:15:16.126Z,16.53
2017-10-19T07:17:42.411Z,25.03
2017-10-19T07:20:08.678Z,21.73
2017-10-19T07:22:34.991Z,23.73
2017-10-19T07:25:01.263Z,16.77
2017-10-19T07:27:27.528Z,35.20
2017-10-19T07:29:53.840Z,30.90
2017-10-19T07:32:20.118Z,18.43
2017-10-19T07:34:46.400Z,18.67
2017-10-19T07:37:12.777Z,20.73
2017-10-19T07:39:39.052Z,26.33
2017-10-19T07:42:05.337Z,23.20
2017-10-19T07:44:31.634Z,22.60
2017-10-19T07:46:57.922Z,24.40
2017-10-19T07:49:24.219Z,26.90
2017-10-19T07:51:50.534Z,17.40
2017-10-19T07:54:16.802Z,43.33
2017-10-19T07:56:43.081Z,34.57
2017-10-19T07:59:09.395Z,30.10
2017-10-19T08:01:35.681Z,28.73
2017-10-19T08:04:01.975Z,48.13
2017-10-19T08:06:28.312Z,50.73
2017-10-19T08:08:54.602Z,32.17
2017-10-19T08:11:20.879Z,40.07
2017-10-19T08:13:47.189Z,23.27
2017-10-19T08:16:13.484Z,33.17
2017-10-19T08:18:39.782Z,27.93
2017-10-19T08:21:06.126Z,30.90
2017-10-19T08:23:32.415Z,34.27
2017-10-19T08:25:58.703Z,30.20
2017-10-19T08:28:25.035Z,33.97
2017-10-19T08:30:51.325Z,32.47
2017-10-19T08:33:17.625Z,31.37
2017-10-19T08:35:43.935Z,48.20
2017-10-19T08:38:10.219Z,27.70
2017-10-19T08:40:36.505Z,33.93
2017-10-19T08:43:02.820Z,60.90
2017-10-19T08:45:29.084Z,34.50
2017-10-19T08:47:55.351Z,40.43
2017-10-19T08:50:21.662Z,25.53
2017-10-19T08:52:48.122Z,41.10
2017-10-19T08:55:14.417Z,47.00
2017-10-19T08:57:40.851Z,39.93
2017-10-19T09:00:07.114Z,23.27
2017-10-19T09:02:33.436Z,54.03
2017-10-19T09:04:59.838Z,75.27
2017-10-19T09:07:26.303Z,36.77
2017-10-19T09:09:52.576Z,29.20
2017-10-19T09:12:18.857Z,25.93
2017-10-19T09:14:45.157Z,23.87
2017-10-19T09:17:11.636Z,29.07
2017-10-19T09:19:37.898Z,24.23
2017-10-19T09:22:04.171Z,22.83
2017-10-19T09:24:30.446Z,28.23
2017-10-19T09:26:56.742Z,32.63
2017-10-19T09:29:23.028Z,25.93
2017-10-19T09:31:49.305Z,21.63
2017-10-19T09:34:15.616Z,23.80
2017-10-19T09:36:41.887Z,30.20
2017-10-19T09:39:08.207Z,41.50
2017-10-19T09:41:34.470Z,48.03
2017-10-19T09:44:00.755Z,25.83
2017-10-19T09:46:27.082Z,35.17
2017-10-19T09:48:53.362Z,46.50
2017-10-19T09:51:19.634Z,32.28
2017-10-19T09:53:45.939Z,27.47
2017-10-19T09:56:12.325Z,37.58
2017-10-19T09:58:38.767Z,36.05
2017-10-19T10:01:05.049Z,28.12
2017-10-19T10:03:31.344Z,42.75
2017-10-19T10:05:57.676Z,31.98
2017-10-19T10:08:23.963Z,25.88
2017-10-19T10:10:50.231Z,33.70
2017-10-19T10:13:16.534Z,24.40
2017-10-19T10:15:42.801Z,20.23
2017-10-19T10:18:09.091Z,26.60
2017-10-19T10:20:35.363Z,26.98
2017-10-19T10:23:01.626Z,49.50
2017-10-19T10:25:27.970Z,51.57
2017-10-19T10:27:54.240Z,60.55
2017-10-19T10:30:20.518Z,34.67
2017-10-19T10:32:46.812Z,14.75
2017-10-19T10:35:13.083Z,16.48
2017-10-19T10:37:39.362Z,25.40
2017-10-19T10:40:05.645Z,27.58
2017-10-19T10:42:31.916Z,24.00
2017-10-19T10:44:58.193Z,23.30
2017-10-19T10:47:24.475Z,18.25
2017-10-19T10:49:50.738Z,24.77
2017-10-19T10:52:17.194Z,9.35
2017-10-19T10:54:43.459Z,10.52
2017-10-19T10:57:09.736Z,18.83
2017-10-19T10:59:36.068Z,11.50
2017-10-19T11:02:02.334Z,12.93
2017-10-19T11:04:28.613Z,9.85
2017-10-19T11:06:54.926Z,8.52
2017-10-19T11:09:21.203Z,7.53
2017-10-19T11:11:47.473Z,17.60
2017-10-19T11:14:13.742Z,10.95
2017-10-19T11:16:40.011Z,10.70
2017-10-19T11:19:06.268Z,20.17
2017-10-19T11:21:32.764Z,11.10
2017-10-19T11:23:59.027Z,10.95
2017-10-19T11:26:25.287Z,14.90
2017-10-19T11:28:51.562Z,13.43
2017-10-19T11:31:17.840Z,24.33
2017-10-19T11:33:44.103Z,27.87
2017-10-19T11:36:10.420Z,17.25
2017-10-19T11:38:36.684Z,11.18
2017-10-19T11:41:02.993Z,16.17
2017-10-19T11:43:29.251Z,16.52
2017-10-19T11:45:55.517Z,7.70
2017-10-19T11:48:21.799Z,13.55
2017-10-19T11:50:48.101Z,9.70
2017-10-19T11:53:14.525Z,16.73
2017-10-19T11:55:40.786Z,28.48
2017-10-19T11:58:07.058Z,14.25
2017-10-19T12:00:33.417Z,6.45
2017-10-19T12:02:59.766Z,8.68
2017-10-19T12:05:26.037Z,7.43
2017-10-19T12:07:52.354Z,13.25
2017-10-19T12:10:18.626Z,19.67
2017-10-19T12:12:44.883Z,13.48
2017-10-19T12:17:42.572Z,8.50
2017-10-19T12:20:08.835Z,16.02
2017-10-19T12:22:35.455Z,10.00
2017-10-19T12:25:01.720Z,10.23
2017-10-19T12:27:27.993Z,5.80
2017-10-19T12:29:54.297Z,7.35
2017-10-19T12:32:20.577Z,16.02
2017-10-19T12:34:46.834Z,7.07
2017-10-19T12:39:44.996Z,5.93
2017-10-19T12:42:11.258Z,5.60
2017-10-19T12:44:37.559Z,8.48
2017-10-19T12:47:03.862Z,8.15
2017-10-19T12:49:30.125Z,4.87
2017-10-19T12:51:56.384Z,7.82
2017-10-19T12:54:22.645Z,6.05
2017-10-19T12:56:48.935Z,5.30
2017-10-19T12:59:15.197Z,9.50
2017-10-19T13:01:41.505Z,8.40
2017-10-19T13:04:07.810Z,13.50
2017-10-19T13:06:34.059Z,5.18
2017-10-19T13:09:00.330Z,16.62
2017-10-19T13:11:26.638Z,9.02
2017-10-19T13:13:52.901Z,7.82
2017-10-19T13:16:19.171Z,10.05
2017-10-19T13:18:45.440Z,11.23
2017-10-19T13:21:11.704Z,8.18
2017-10-19T13:23:37.992Z,19.27
2017-10-19T13:26:04.247Z,11.73
2017-10-19T13:28:30.545Z,10.48
2017-10-19T13:30:56.837Z,13.37
2017-10-19T13:33:23.108Z,13.50
2017-10-19T13:35:49.371Z,16.30
2017-10-19T13:38:15.667Z,12.03
2017-10-19T13:40:41.923Z,13.83
2017-10-19T13:43:08.199Z,17.23
2017-10-19T13:45:34.453Z,23.70
2017-10-19T13:48:00.716Z,21.50
2017-10-19T13:50:27.014Z,40.03
2017-10-19T13:52:53.277Z,54.47
2017-10-19T13:55:19.544Z,29.73
2017-10-19T13:57:45.827Z,27.40
2017-10-19T14:00:12.082Z,38.23
2017-10-19T14:02:38.394Z,32.07
2017-10-19T14:05:04.664Z,42.70
2017-10-19T14:07:30.956Z,19.23
2017-10-19T14:09:57.252Z,23.50
2017-10-19T14:12:23.527Z,34.60
2017-10-19T14:14:50.178Z,32.73
2017-10-19T14:17:16.659Z,43.20
2017-10-19T14:19:43.210Z,33.60
2017-10-19T14:22:09.532Z,25.37
2017-10-19T14:24:35.804Z,50.63
2017-10-19T14:27:02.086Z,44.33
2017-10-19T14:29:28.367Z,35.57
2017-10-19T14:31:54.765Z,51.77
2017-10-19T14:34:21.045Z,43.97
2017-10-19T14:36:47.417Z,34.17
2017-10-19T14:39:13.720Z,57.07
2017-10-19T14:41:40.032Z,102.27
2017-10-19T14:44:06.292Z,117.77
2017-10-19T14:46:32.551Z,68.43
2017-10-19T14:48:58.839Z,71.13
2017-10-19T14:51:25.097Z,88.60
2017-10-19T14:53:51.386Z,51.57
2017-10-19T14:56:17.641Z,83.10
2017-10-19T14:58:43.890Z,55.77
2017-10-19T15:01:10.224Z,61.37
2017-10-19T15:03:36.507Z,59.90
2017-10-19T15:06:02.789Z,56.03
2017-10-19T15:08:29.044Z,67.23
2017-10-19T15:10:55.302Z,70.87
2017-10-19T15:13:25.453Z,108.60
2017-10-19T15:15:51.730Z,75.97
2017-10-19T15:18:17.987Z,77.57
2017-10-19T15:20:44.308Z,67.83
2017-10-19T15:23:10.573Z,102.47
2017-10-19T15:25:36.849Z,60.17
2017-10-19T15:28:03.120Z,54.27
2017-10-19T15:30:29.382Z,61.50
2017-10-19T15:32:55.638Z,64.17
2017-10-19T15:35:21.903Z,63.27
2017-10-19T15:37:48.161Z,60.23
2017-10-19T15:40:14.421Z,58.73
2017-10-19T15:42:40.676Z,70.97
2017-10-19T15:45:07.010Z,70.03
2017-10-19T15:47:33.266Z,73.53
2017-10-19T15:49:59.507Z,63.47
2017-10-19T15:52:25.752Z,70.80
2017-10-19T15:54:51.992Z,70.30
2017-10-19T15:57:18.294Z,83.63
2017-10-19T15:59:44.566Z,60.57
2017-10-19T16:02:10.813Z,88.10
2017-10-19T16:04:37.060Z,59.87
2017-10-19T16:07:03.312Z,56.73
2017-10-19T16:09:29.607Z,83.23
2017-10-19T16:11:55.864Z,69.27
2017-10-19T16:14:22.100Z,60.70
2017-10-19T16:16:48.336Z,54.93
2017-10-19T16:19:14.576Z,64.00
2017-10-19T16:21:40.828Z,69.70
2017-10-19T16:24:07.204Z,74.40
2017-10-19T16:26:33.446Z,72.97
2017-10-19T16:28:59.696Z,62.00
2017-10-19T16:31:25.949Z,81.10
2017-10-19T16:33:52.219Z,101.23
2017-10-19T16:36:18.468Z,86.73
2017-10-19T16:38:44.704Z,81.67
2017-10-19T16:41:11.124Z,88.80
2017-10-19T16:43:37.400Z,84.40
2017-10-19T16:46:03.676Z,85.07
2017-10-19T16:48:29.970Z,79.03
2017-10-19T16:50:56.269Z,99.70
2017-10-19T16:53:22.581Z,83.87
2017-10-19T16:55:48.867Z,57.17
2017-10-19T16:58:15.132Z,67.83
2017-10-19T17:00:41.415Z,54.83
2017-10-19T17:03:07.712Z,37.97
2017-10-19T17:05:34.019Z,42.10
2017-10-19T17:08:00.326Z,47.23
2017-10-19T17:10:26.606Z,52.00
2017-10-19T17:12:52.913Z,47.00
2017-10-19T17:15:19.147Z,58.47
2017-10-19T17:17:45.410Z,57.37
2017-10-19T17:20:11.798Z,55.13
2017-10-19T17:22:38.048Z,47.80
2017-10-19T17:25:04.332Z,76.27
2017-10-19T17:27:30.574Z,51.37
2017-10-19T17:29:56.834Z,57.27
2017-10-19T17:32:23.108Z,53.63
2017-10-19T17:34:49.372Z,60.87
2017-10-19T17:37:15.659Z,63.80
2017-10-19T17:39:41.926Z,56.13
2017-10-19T17:42:08.211Z,40.53
2017-10-19T17:44:34.463Z,78.67
2017-10-19T17:47:00.739Z,56.53
2017-10-19T17:49:27.051Z,64.67
2017-10-19T17:51:53.304Z,55.47
2017-10-19T17:54:19.554Z,55.80
2017-10-19T17:56:45.857Z,61.73
2017-10-19T17:59:12.104Z,54.33
2017-10-19T18:01:38.349Z,54.17
2017-10-19T18:04:04.728Z,44.63
2017-10-19T18:06:31.070Z,48.00
2017-10-19T18:08:57.368Z,52.33
2017-10-19T18:11:23.675Z,42.77
2017-10-19T18:13:49.923Z,35.83
2017-10-19T18:16:16.393Z,41.40
2017-10-19T18:18:42.675Z,69.53
2017-10-19T18:21:08.911Z,53.80
2017-10-19T18:23:35.191Z,40.10
2017-10-19T18:26:01.451Z,53.03
2017-10-19T18:28:27.854Z,48.33
2017-10-19T18:30:54.142Z,53.20
2017-10-19T18:33:20.387Z,59.57
2017-10-19T18:35:46.645Z,49.23
2017-10-19T18:38:12.901Z,41.30
2017-10-19T18:40:39.172Z,52.63
2017-10-19T18:43:05.475Z,51.10
2017-10-19T18:45:31.771Z,58.33
2017-10-19T18:47:58.037Z,48.03
2017-10-19T18:50:24.576Z,46.37
2017-10-19T18:52:50.831Z,52.53
2017-10-19T18:55:17.458Z,63.90
2017-10-19T18:57:44.105Z,57.87
2017-10-19T19:00:10.519Z,48.63
2017-10-19T19:02:36.983Z,50.77
2017-10-19T19:05:03.481Z,44.93
2017-10-19T19:07:30.006Z,48.23
2017-10-19T19:09:56.462Z,42.17
2017-10-19T19:12:23.107Z,44.50
2017-10-19T19:14:49.555Z,36.13
2017-10-19T19:17:15.823Z,37.93
2017-10-19T19:19:42.284Z,41.10
2017-10-19T19:22:08.552Z,47.33
2017-10-19T19:24:34.799Z,45.23
2017-10-19T19:27:01.059Z,32.20
2017-10-19T19:29:27.344Z,40.97
2017-10-19T19:31:53.638Z,44.40
2017-10-19T19:34:19.908Z,46.07
2017-10-19T19:36:46.393Z,50.27
2017-10-19T19:39:12.660Z,58.37
2017-10-19T19:41:38.913Z,42.83
2017-10-19T19:44:05.184Z,50.27
2017-10-19T19:46:31.448Z,59.20
2017-10-19T19:48:57.719Z,49.53
2017-10-19T19:51:23.983Z,43.80
2017-10-19T19:53:50.235Z,59.93
2017-10-19T19:56:16.518Z,44.13
2017-10-19T19:58:42.766Z,40.83
2017-10-19T20:01:09.024Z,57.87
2017-10-19T20:03:35.276Z,54.93
2017-10-19T20:06:01.532Z,59.00
2017-10-19T20:08:27.805Z,47.23
2017-10-19T20:10:54.069Z,43.10
2017-10-19T20:13:20.332Z,54.63
2017-10-19T20:15:46.572Z,56.07
2017-10-19T20:18:12.838Z,58.63
2017-10-19T20:20:39.143Z,60.77
2017-10-19T20:23:05.397Z,54.47
2017-10-19T20:25:31.645Z,37.67
2017-10-19T20:27:57.912Z,49.53
2017-10-19T20:30:24.163Z,31.37
2017-10-19T20:32:50.432Z,49.00
2017-10-19T20:35:16.682Z,36.73
2017-10-19T20:37:42.933Z,46.17
2017-10-19T20:40:09.196Z,42.13
2017-10-19T20:42:35.454Z,54.20
2017-10-19T20:45:01.758Z,42.57
2017-10-19T20:47:28.021Z,34.20
2017-10-19T20:49:54.291Z,43.13
2017-10-19T20:52:20.546Z,34.43
2017-10-19T20:54:46.997Z,38.00
2017-10-19T20:57:13.302Z,43.67
2017-10-19T20:59:39.623Z,48.37
2017-10-19T21:02:05.887Z,49.17
2017-10-19T21:04:32.129Z,44.50
2017-10-19T21:06:58.385Z,44.83
2017-10-19T21:09:24.636Z,43.93
2017-10-19T21:11:50.879Z,37.60
2017-10-19T21:14:17.116Z,53.33
2017-10-19T21:16:43.355Z,37.13
2017-10-19T21:19:09.605Z,49.77
2017-10-19T21:21:35.834Z,62.50
2017-10-19T21:24:02.109Z,38.97
2017-10-19T21:26:28.389Z,30.90
2017-10-19T21:28:54.687Z,41.73
2017-10-19T21:31:20.944Z,48.13
2017-10-19T21:33:47.250Z,42.63
2017-10-19T21:36:13.503Z,37.53
2017-10-19T21:38:39.761Z,45.53
2017-10-19T21:41:06.019Z,40.20
2017-10-19T21:43:32.356Z,37.53
2017-10-19T21:45:58.628Z,36.77
2017-10-19T21:48:24.882Z,32.20
2017-10-19T21:50:51.131Z,39.37
2017-10-19T21:53:17.394Z,48.70
2017-10-19T21:55:43.648Z,42.67
2017-10-19T21:58:09.946Z,48.40
2017-10-19T22:00:36.185Z,52.20
2017-10-19T22:03:02.439Z,36.60
2017-10-19T22:05:28.676Z,37.40
2017-10-19T22:07:55.048Z,46.03
2017-10-19T22:10:21.348Z,42.83
2017-10-19T22:12:47.602Z,38.50
2017-10-19T22:15:13.868Z,40.17
2017-10-19T22:17:40.058Z,38.47
2017-10-19T22:20:06.255Z,36.73
2017-10-19T22:22:32.468Z,41.13
2017-10-19T22:24:58.677Z,39.43
2017-10-19T22:27:24.900Z,38.27
2017-10-19T22:29:51.092Z,41.83
2017-10-19T22:32:17.276Z,37.70
2017-10-19T22:34:43.478Z,38.03
2017-10-19T22:37:09.682Z,35.97
2017-10-19T22:39:35.857Z,29.90
2017-10-19T22:42:02.066Z,33.30
2017-10-19T22:44:28.284Z,29.67
2017-10-19T22:46:54.500Z,39.20
2017-10-19T22:49:20.690Z,36.67
2017-10-19T22:51:46.866Z,36.60
2017-10-19T22:54:13.071Z,56.50
2017-10-19T22:56:39.264Z,37.53
2017-10-19T22:59:05.601Z,34.77
2017-10-19T23:01:31.819Z,39.77
2017-10-19T23:03:58.010Z,30.20
2017-10-19T23:06:24.208Z,30.17
2017-10-19T23:08:50.414Z,40.10
2017-10-19T23:11:16.770Z,31.70
2017-10-19T23:13:43.014Z,33.47
2017-10-19T23:16:09.257Z,63.13
2017-10-19T23:18:35.507Z,36.80
2017-10-19T23:21:01.765Z,33.90
2017-10-19T23:23:28.064Z,33.77
2017-10-19T23:25:54.350Z,32.53
2017-10-19T23:28:20.595Z,27.67
2017-10-19T23:30:47.022Z,34.00
2017-10-19T23:33:13.280Z,38.80
2017-10-19T23:35:39.574Z,38.63
2017-10-19T23:38:05.812Z,35.30
2017-10-19T23:40:32.070Z,35.83
2017-10-19T23:42:58.364Z,36.97
2017-10-19T23:45:24.617Z,34.67
2017-10-19T23:47:50.889Z,46.77
2017-10-19T23:50:17.167Z,36.53
2017-10-19T23:52:43.504Z,43.90
2017-10-19T23:55:09.756Z,45.70
2017-10-19T23:57:36.014Z,44.23
